Douglas, WY (82633)

12:43 PM MDT on August 30, 2015 (GMT -0600)
Converse County | | Change Station
CLOSE
Current Station
Airport
Location: Douglas,
Elevation: 4928 ft
Nearby Weather Stations
Active Advisory: Fire Weather Warning

Elev 4928 ft 42.80 °N, 105.38 °W | Updated 50 minutes ago

Clear
Clear
95 °F
Feels Like 95 °F
N
16
Wind Variable Wind from West
Gusts 26 mph

Today
High -- | Low -- °F
--% Chance of Precip.
Yesterday
High -- | Low -- °F
Precip. -- in
6:23 AM 7:40 PM
Full, 98% visible
Pressure 29.75 in
Visibility 10.0 miles
Clouds Clear
Dew Point 37 °F
Humidity 13%
Rainfall 0.00 in
Snow Depth Not available.
UV 9 out of 12
Pollen 10.40 out of 12
Air Quality Not available.
Flu Activity Not available.
METAR KDGW 301753Z AUTO 28014G23KT 10SM CLR 35/03 A2997 RMK AO2 SLP073 T03500028 10350 20117 58009
Pressure 29.75 in
Visibility 10.0 miles
Clouds Clear
Dew Point 37 °F
Humidity 13%
Rainfall 0.00 in
Snow Depth Not available.
UV 9 out of 12
Pollen 10.40 out of 12
Air Quality Not available.
Flu Activity Not available.
METAR KDGW 301753Z AUTO 28014G23KT 10SM CLR 35/03 A2997 RMK AO2 SLP073 T03500028 10350 20117 58009

10-Day Weather Forecast

×

Almanac

Astronomy

Aug. 30, 2015 Rise Set
Actual Time
Civil Twilight
Nautical Twilight
Astronomical Twilight
Moon
Length of Visible Light
Length of Day
Tomorrow will be .
, % of the Moon is Illuminated

Today's Extremes

State Highs State Lows

Community

WunderPhotos

Upload Photos

1,851,031 photos uploaded!

WunderBlogs® & News

Nearby

Air Quality

  Air Quality AQ Index Pollutant
Not available.

Snow Depth

Station Depth Elevation

Earthquake Activity

City Distance Mag. Time & Date
Minimum magnitude displayed is 2.5.

Coastal Water Temperatures

Place Temperature

Stations

Nearby Weather Stations

Station Location Temp. Windchill Dew Point Humidity Wind Precip. Elev Updated Type
                   
Fire Weather Warning
Statement as of 5:16 AM MDT on August 30, 2015

... Red flag warning remains in effect from 11 am this morning to
7 PM MDT this evening for low humidities... gusty winds and
isolated dry thunderstorms for fire weather zone 301...

* affected area... fire weather zone 301.

* Wind... southwest at 18 to 25 mph with gusts to 35 mph late
this morning through the afternoon.

* Humidity... 12 to 15 percent.

* Thunderstorms... isolated dry thunderstorms early afternoon
before turning wet late afternoon.

* Impacts... any fires that develop will likely spread rapidly.
Outdoor burning is not recommended.

Precautionary/preparedness actions...

A red flag warning means that critical fire weather conditions
are either occurring now... or will shortly. A combination of
strong winds... low relative humidity... and warm temperatures may
lead to extreme fire behavior.